sensor_id;sensor_type;location;lat;lon;timestamp;pressure;altitude;pressure_sealevel;temperature;humidity
5691;BME280;2870;42.680;23.364;2023-04-10T00:02:14;95259.75;;;8.33;79.90
5691;BME280;2870;42.680;23.364;2023-04-10T00:04:41;95258.91;;;8.52;79.93
5691;BME280;2870;42.680;23.364;2023-04-10T00:07:08;95260.72;;;8.49;79.78
5691;BME280;2870;42.680;23.364;2023-04-10T00:09:35;95263.97;;;8.74;79.91
5691;BME280;2870;42.680;23.364;2023-04-10T00:12:02;95255.44;;;8.80;78.46
5691;BME280;2870;42.680;23.364;2023-04-10T00:14:29;95256.09;;;8.72;78.77
5691;BME280;2870;42.680;23.364;2023-04-10T00:16:56;95258.78;;;8.78;77.56
5691;BME280;2870;42.680;23.364;2023-04-10T00:19:24;95256.38;;;8.61;76.87
5691;BME280;2870;42.680;23.364;2023-04-10T00:21:51;95256.03;;;8.65;76.11
5691;BME280;2870;42.680;23.364;2023-04-10T00:24:18;95248.03;;;8.48;74.55
5691;BME280;2870;42.680;23.364;2023-04-10T00:26:45;95241.50;;;8.45;72.63
5691;BME280;2870;42.680;23.364;2023-04-10T00:29:12;95238.91;;;8.47;69.34
5691;BME280;2870;42.680;23.364;2023-04-10T00:31:39;95242.09;;;8.17;67.60
5691;BME280;2870;42.680;23.364;2023-04-10T00:34:06;95246.00;;;8.35;65.39
5691;BME280;2870;42.680;23.364;2023-04-10T00:36:35;95241.50;;;8.66;65.42
5691;BME280;2870;42.680;23.364;2023-04-10T00:39:01;95236.25;;;8.29;64.91
5691;BME280;2870;42.680;23.364;2023-04-10T00:41:28;95245.59;;;8.31;65.09
5691;BME280;2870;42.680;23.364;2023-04-10T00:43:56;95239.91;;;8.37;65.15
5691;BME280;2870;42.680;23.364;2023-04-10T00:46:23;95239.94;;;8.58;64.67
5691;BME280;2870;42.680;23.364;2023-04-10T00:48:50;95240.59;;;8.50;64.52
5691;BME280;2870;42.680;23.364;2023-04-10T00:51:18;95240.69;;;8.58;64.87
5691;BME280;2870;42.680;23.364;2023-04-10T00:53:49;95234.19;;;8.42;66.41
5691;BME280;2870;42.680;23.364;2023-04-10T00:56:17;95235.38;;;8.47;68.77
5691;BME280;2870;42.680;23.364;2023-04-10T00:58:44;95230.06;;;8.57;69.72
5691;BME280;2870;42.680;23.364;2023-04-10T01:01:11;95231.25;;;8.48;72.60
5691;BME280;2870;42.680;23.364;2023-04-10T01:03:38;95222.81;;;8.27;75.91
5691;BME280;2870;42.680;23.364;2023-04-10T01:06:13;95222.03;;;8.06;78.83
5691;BME280;2870;42.680;23.364;2023-04-10T01:08:50;95211.47;;;8.12;79.96
5691;BME280;2870;42.680;23.364;2023-04-10T01:11:29;95198.38;;;8.07;80.78
5691;BME280;2870;42.680;23.364;2023-04-10T01:14:03;95207.88;;;7.90;82.43
5691;BME280;2870;42.680;23.364;2023-04-10T01:16:35;95210.84;;;8.06;82.14
5691;BME280;2870;42.680;23.364;2023-04-10T01:19:12;95213.84;;;8.08;82.78
5691;BME280;2870;42.680;23.364;2023-04-10T01:21:44;95216.22;;;8.04;83.27
5691;BME280;2870;42.680;23.364;2023-04-10T01:24:23;95213.41;;;8.04;83.71
5691;BME280;2870;42.680;23.364;2023-04-10T01:27:10;95209.31;;;8.18;83.60
5691;BME280;2870;42.680;23.364;2023-04-10T01:29:43;95212.09;;;8.18;83.73
5691;BME280;2870;42.680;23.364;2023-04-10T01:32:13;95206.72;;;8.20;83.54
5691;BME280;2870;42.680;23.364;2023-04-10T01:34:44;95207.53;;;7.94;84.62
5691;BME280;2870;42.680;23.364;2023-04-10T01:37:15;95209.31;;;8.05;84.35
5691;BME280;2870;42.680;23.364;2023-04-10T01:39:42;95208.44;;;8.23;83.40
5691;BME280;2870;42.680;23.364;2023-04-10T01:42:13;95214.66;;;8.29;83.19
5691;BME280;2870;42.680;23.364;2023-04-10T01:44:45;95215.91;;;8.41;82.81
5691;BME280;2870;42.680;23.364;2023-04-10T01:47:14;95215.72;;;8.26;83.28
5691;BME280;2870;42.680;23.364;2023-04-10T01:49:44;95211.34;;;8.17;83.27
5691;BME280;2870;42.680;23.364;2023-04-10T01:52:13;95215.78;;;8.00;82.96
5691;BME280;2870;42.680;23.364;2023-04-10T01:54:40;95204.13;;;8.22;81.61
5691;BME280;2870;42.680;23.364;2023-04-10T01:57:10;95218.38;;;8.32;81.65
5691;BME280;2870;42.680;23.364;2023-04-10T01:59:39;95219.34;;;8.47;81.35
5691;BME280;2870;42.680;23.364;2023-04-10T06:06:54;95233.47;;;9.90;72.61
5691;BME280;2870;42.680;23.364;2023-04-10T06:09:20;95236.59;;;10.23;70.83
5691;BME280;2870;42.680;23.364;2023-04-10T06:11:47;95233.66;;;9.92;70.16
5691;BME280;2870;42.680;23.364;2023-04-10T06:14:14;95239.41;;;9.87;71.86
5691;BME280;2870;42.680;23.364;2023-04-10T06:16:41;95232.47;;;9.80;70.60
5691;BME280;2870;42.680;23.364;2023-04-10T06:19:08;95228.16;;;9.79;70.86
5691;BME280;2870;42.680;23.364;2023-04-10T06:21:34;95223.00;;;10.27;71.98
5691;BME280;2870;42.680;23.364;2023-04-10T06:24:03;95225.66;;;10.40;69.92
5691;BME280;2870;42.680;23.364;2023-04-10T06:26:30;95219.56;;;10.21;74.02
5691;BME280;2870;42.680;23.364;2023-04-10T06:28:57;95230.47;;;10.24;73.10
5691;BME280;2870;42.680;23.364;2023-04-10T06:31:24;95227.22;;;10.20;70.73
5691;BME280;2870;42.680;23.364;2023-04-10T06:33:51;95225.91;;;10.14;69.78
5691;BME280;2870;42.680;23.364;2023-04-10T06:36:18;95223.84;;;10.14;70.52
5691;BME280;2870;42.680;23.364;2023-04-10T06:38:45;95228.56;;;10.78;68.51
5691;BME280;2870;42.680;23.364;2023-04-10T06:41:13;95233.66;;;10.36;69.38
5691;BME280;2870;42.680;23.364;2023-04-10T06:43:39;95228.88;;;10.59;68.90
5691;BME280;2870;42.680;23.364;2023-04-10T06:46:06;95240.47;;;10.56;67.87
5691;BME280;2870;42.680;23.364;2023-04-10T06:48:33;95238.41;;;10.56;69.59
5691;BME280;2870;42.680;23.364;2023-04-10T06:51:00;95242.84;;;10.00;69.60
5691;BME280;2870;42.680;23.364;2023-04-10T06:53:27;95241.41;;;9.71;70.55
5691;BME280;2870;42.680;23.364;2023-04-10T06:55:54;95242.75;;;9.77;70.45
5691;BME280;2870;42.680;23.364;2023-04-10T06:58:22;95252.47;;;9.84;71.04
5691;BME280;2870;42.680;23.364;2023-04-10T07:00:50;95241.69;;;9.88;70.34
5691;BME280;2870;42.680;23.364;2023-04-10T07:03:16;95240.00;;;9.56;70.90
5691;BME280;2870;42.680;23.364;2023-04-10T07:05:43;95238.19;;;9.67;71.20
5691;BME280;2870;42.680;23.364;2023-04-10T07:08:10;95236.84;;;9.96;70.43
5691;BME280;2870;42.680;23.364;2023-04-10T07:10:37;95240.56;;;10.27;69.26
5691;BME280;2870;42.680;23.364;2023-04-10T07:13:04;95240.75;;;10.29;67.92
5691;BME280;2870;42.680;23.364;2023-04-10T07:15:32;95237.84;;;10.50;68.47
5691;BME280;2870;42.680;23.364;2023-04-10T07:17:59;95236.84;;;9.96;69.79
5691;BME280;2870;42.680;23.364;2023-04-10T07:20:25;95237.66;;;10.04;69.90
5691;BME280;2870;42.680;23.364;2023-04-10T07:22:52;95240.66;;;10.14;68.01
5691;BME280;2870;42.680;23.364;2023-04-10T07:25:19;95239.69;;;10.40;68.41
5691;BME280;2870;42.680;23.364;2023-04-10T07:27:46;95241.63;;;10.17;67.55
5691;BME280;2870;42.680;23.364;2023-04-10T07:30:13;95246.31;;;10.22;67.42
5691;BME280;2870;42.680;23.364;2023-04-10T07:32:41;95243.47;;;10.14;68.40
5691;BME280;2870;42.680;23.364;2023-04-10T07:35:09;95245.22;;;10.25;68.90
5691;BME280;2870;42.680;23.364;2023-04-10T07:37:36;95240.03;;;10.37;67.13
5691;BME280;2870;42.680;23.364;2023-04-10T07:40:04;95246.63;;;10.54;68.63
5691;BME280;2870;42.680;23.364;2023-04-10T07:42:32;95245.50;;;10.50;66.17
5691;BME280;2870;42.680;23.364;2023-04-10T07:44:58;95245.00;;;10.67;66.49
5691;BME280;2870;42.680;23.364;2023-04-10T07:47:25;95255.59;;;10.60;66.89
5691;BME280;2870;42.680;23.364;2023-04-10T07:49:53;95242.66;;;10.42;66.53
5691;BME280;2870;42.680;23.364;2023-04-10T07:52:20;95247.97;;;10.76;65.06
5691;BME280;2870;42.680;23.364;2023-04-10T07:54:47;95244.25;;;10.89;64.94
5691;BME280;2870;42.680;23.364;2023-04-10T07:57:14;95242.97;;;10.90;65.67
5691;BME280;2870;42.680;23.364;2023-04-10T07:59:41;95248.03;;;11.30;65.19
5691;BME280;2870;42.680;23.364;2023-04-10T08:02:08;95243.72;;;10.91;65.02
5691;BME280;2870;42.680;23.364;2023-04-10T08:04:35;95239.59;;;10.84;65.12
5691;BME280;2870;42.680;23.364;2023-04-10T08:07:03;95241.06;;;10.77;65.96
5691;BME280;2870;42.680;23.364;2023-04-10T08:09:30;95244.47;;;11.06;66.18
5691;BME280;2870;42.680;23.364;2023-04-10T08:11:57;95246.09;;;10.64;66.65
5691;BME280;2870;42.680;23.364;2023-04-10T08:14:24;95243.09;;;10.61;66.76
5691;BME280;2870;42.680;23.364;2023-04-10T08:16:51;95245.22;;;11.14;65.18
5691;BME280;2870;42.680;23.364;2023-04-10T08:19:18;95247.06;;;10.89;65.87
5691;BME280;2870;42.680;23.364;2023-04-10T08:21:45;95233.06;;;11.35;65.09
5691;BME280;2870;42.680;23.364;2023-04-10T08:24:13;95237.53;;;11.00;66.00
5691;BME280;2870;42.680;23.364;2023-04-10T08:26:39;95249.72;;;11.18;64.36
5691;BME280;2870;42.680;23.364;2023-04-10T08:29:06;95241.84;;;11.16;64.38
5691;BME280;2870;42.680;23.364;2023-04-10T08:31:33;95240.34;;;11.23;64.39
5691;BME280;2870;42.680;23.364;2023-04-10T08:34:00;95237.34;;;11.44;65.19
5691;BME280;2870;42.680;23.364;2023-04-10T08:36:28;95242.00;;;11.56;66.66
5691;BME280;2870;42.680;23.364;2023-04-10T08:38:55;95246.13;;;11.55;63.28
5691;BME280;2870;42.680;23.364;2023-04-10T08:41:23;95242.41;;;11.22;64.28
5691;BME280;2870;42.680;23.364;2023-04-10T08:43:52;95237.91;;;11.11;65.81
5691;BME280;2870;42.680;23.364;2023-04-10T08:46:18;95236.06;;;11.06;65.23
5691;BME280;2870;42.680;23.364;2023-04-10T08:48:52;95209.47;;;11.23;65.73
5691;BME280;2870;42.680;23.364;2023-04-10T08:51:22;95233.03;;;10.89;64.35
5691;BME280;2870;42.680;23.364;2023-04-10T08:53:55;95237.34;;;11.21;64.17
5691;BME280;2870;42.680;23.364;2023-04-10T08:56:25;95232.84;;;11.48;63.50
5691;BME280;2870;42.680;23.364;2023-04-10T08:58:52;95236.41;;;11.33;64.57
5691;BME280;2870;42.680;23.364;2023-04-10T09:01:20;95233.19;;;11.67;65.73
5691;BME280;2870;42.680;23.364;2023-04-10T09:03:47;95235.25;;;11.82;63.22
5691;BME280;2870;42.680;23.364;2023-04-10T09:06:13;95227.81;;;11.47;61.56
5691;BME280;2870;42.680;23.364;2023-04-10T09:08:40;95224.25;;;11.46;61.81
5691;BME280;2870;42.680;23.364;2023-04-10T09:11:07;95231.16;;;11.60;58.88
5691;BME280;2870;42.680;23.364;2023-04-10T09:13:37;95228.31;;;11.76;58.14
5691;BME280;2870;42.680;23.364;2023-04-10T09:16:05;95221.97;;;11.60;58.78
5691;BME280;2870;42.680;23.364;2023-04-10T09:18:46;95224.81;;;11.52;58.46
5691;BME280;2870;42.680;23.364;2023-04-10T09:21:15;95220.25;;;11.72;57.84
5691;BME280;2870;42.680;23.364;2023-04-10T09:23:43;95212.03;;;11.82;58.43
5691;BME280;2870;42.680;23.364;2023-04-10T09:26:25;95216.84;;;12.04;57.70
5691;BME280;2870;42.680;23.364;2023-04-10T09:29:01;95217.94;;;12.01;57.44
5691;BME280;2870;42.680;23.364;2023-04-10T09:31:30;95218.41;;;11.59;57.13
5691;BME280;2870;42.680;23.364;2023-04-10T09:34:21;95209.81;;;11.57;57.65
5691;BME280;2870;42.680;23.364;2023-04-10T09:36:52;95212.19;;;11.76;57.92
5691;BME280;2870;42.680;23.364;2023-04-10T09:39:19;95216.53;;;11.62;58.05
5691;BME280;2870;42.680;23.364;2023-04-10T09:41:48;95212.03;;;11.66;58.77
5691;BME280;2870;42.680;23.364;2023-04-10T09:44:19;95209.84;;;11.27;58.29
5691;BME280;2870;42.680;23.364;2023-04-10T09:46:54;95204.16;;;11.73;57.05
5691;BME280;2870;42.680;23.364;2023-04-10T09:49:21;95207.94;;;11.60;57.40
5691;BME280;2870;42.680;23.364;2023-04-10T09:51:48;95208.09;;;11.70;56.48
5691;BME280;2870;42.680;23.364;2023-04-10T09:54:15;95208.06;;;11.92;56.71
5691;BME280;2870;42.680;23.364;2023-04-10T09:56:44;95197.84;;;11.49;56.53
5691;BME280;2870;42.680;23.364;2023-04-10T09:59:12;95202.28;;;11.75;55.80
5691;BME280;2870;42.680;23.364;2023-04-10T10:01:41;95208.16;;;12.17;56.13
5691;BME280;2870;42.680;23.364;2023-04-10T10:04:09;95195.56;;;12.18;55.28
5691;BME280;2870;42.680;23.364;2023-04-10T10:06:37;95195.81;;;12.45;54.61
5691;BME280;2870;42.680;23.364;2023-04-10T10:09:04;95200.78;;;11.82;55.54
5691;BME280;2870;42.680;23.364;2023-04-10T10:11:32;95193.63;;;11.88;56.40
5691;BME280;2870;42.680;23.364;2023-04-10T10:14:02;95192.84;;;12.03;55.44
5691;BME280;2870;42.680;23.364;2023-04-10T10:16:33;95183.66;;;12.43;54.76
5691;BME280;2870;42.680;23.364;2023-04-10T10:19:08;95183.81;;;12.45;55.31
5691;BME280;2870;42.680;23.364;2023-04-10T10:21:39;95159.88;;;11.96;55.28
5691;BME280;2870;42.680;23.364;2023-04-10T10:24:08;95168.09;;;12.02;55.81
5691;BME280;2870;42.680;23.364;2023-04-10T10:26:38;95161.31;;;12.12;55.43
5691;BME280;2870;42.680;23.364;2023-04-10T10:29:06;95167.66;;;12.20;55.03
5691;BME280;2870;42.680;23.364;2023-04-10T10:31:35;95173.81;;;12.59;53.88
5691;BME280;2870;42.680;23.364;2023-04-10T10:34:04;95163.00;;;12.48;53.68
5691;BME280;2870;42.680;23.364;2023-04-10T10:36:33;95167.38;;;12.66;53.80
5691;BME280;2870;42.680;23.364;2023-04-10T10:39:12;95159.63;;;12.42;54.15
5691;BME280;2870;42.680;23.364;2023-04-10T10:41:48;95149.94;;;12.35;53.96
5691;BME280;2870;42.680;23.364;2023-04-10T10:44:25;95139.69;;;12.55;54.04
5691;BME280;2870;42.680;23.364;2023-04-10T10:47:03;95146.28;;;12.75;53.13
5691;BME280;2870;42.680;23.364;2023-04-10T10:49:54;95150.03;;;12.78;52.42
5691;BME280;2870;42.680;23.364;2023-04-10T10:52:44;95151.22;;;13.17;52.04
5691;BME280;2870;42.680;23.364;2023-04-10T10:55:31;95150.19;;;13.30;51.46
5691;BME280;2870;42.680;23.364;2023-04-10T10:58:00;95140.75;;;13.52;51.73
5691;BME280;2870;42.680;23.364;2023-04-10T11:03:27;95125.69;;;13.57;53.58
5691;BME280;2870;42.680;23.364;2023-04-10T11:05:57;95132.78;;;13.93;51.86
5691;BME280;2870;42.680;23.364;2023-04-10T11:08:36;95125.06;;;14.38;48.66
5691;BME280;2870;42.680;23.364;2023-04-10T11:11:08;95080.22;;;14.15;48.09
5691;BME280;2870;42.680;23.364;2023-04-10T11:13:38;95114.78;;;14.32;47.75
5691;BME280;2870;42.680;23.364;2023-04-10T11:16:06;95120.59;;;15.08;48.20
5691;BME280;2870;42.680;23.364;2023-04-10T11:19:02;95115.50;;;14.97;46.91
5691;BME280;2870;42.680;23.364;2023-04-10T11:21:32;95117.59;;;14.32;47.27
5691;BME280;2870;42.680;23.364;2023-04-10T11:24:03;95121.88;;;13.79;49.94
5691;BME280;2870;42.680;23.364;2023-04-10T11:26:39;95108.56;;;13.20;53.12
5691;BME280;2870;42.680;23.364;2023-04-10T11:29:33;95113.75;;;13.07;53.26
5691;BME280;2870;42.680;23.364;2023-04-10T11:32:01;95111.03;;;12.99;52.92
5691;BME280;2870;42.680;23.364;2023-04-10T11:34:30;95111.38;;;13.20;51.98
5691;BME280;2870;42.680;23.364;2023-04-10T11:36:59;95110.41;;;13.60;51.15
5691;BME280;2870;42.680;23.364;2023-04-10T11:39:29;95116.06;;;13.60;50.28
5691;BME280;2870;42.680;23.364;2023-04-10T11:41:56;95105.44;;;13.86;50.47
5691;BME280;2870;42.680;23.364;2023-04-10T11:44:27;95108.28;;;13.68;51.49
5691;BME280;2870;42.680;23.364;2023-04-10T11:46:54;95102.13;;;13.79;50.51
5691;BME280;2870;42.680;23.364;2023-04-10T11:49:23;95113.31;;;13.70;49.59
5691;BME280;2870;42.680;23.364;2023-04-10T11:51:51;95110.59;;;13.45;49.76
5691;BME280;2870;42.680;23.364;2023-04-10T11:54:20;95117.63;;;13.36;50.40
5691;BME280;2870;42.680;23.364;2023-04-10T11:56:56;95112.25;;;13.31;50.02
5691;BME280;2870;42.680;23.364;2023-04-10T11:59:23;95101.06;;;12.98;50.83
5691;BME280;2870;42.680;23.364;2023-04-10T12:01:52;95099.56;;;12.97;49.98
5691;BME280;2870;42.680;23.364;2023-04-10T12:04:21;95094.75;;;12.90;50.49
5691;BME280;2870;42.680;23.364;2023-04-10T12:06:49;95105.69;;;12.86;51.03
5691;BME280;2870;42.680;23.364;2023-04-10T12:09:19;95096.91;;;12.57;51.98
5691;BME280;2870;42.680;23.364;2023-04-10T12:11:51;95098.34;;;12.65;52.71
5691;BME280;2870;42.680;23.364;2023-04-10T12:14:18;95080.91;;;12.09;57.34
5691;BME280;2870;42.680;23.364;2023-04-10T12:16:46;95116.09;;;11.78;62.63
5691;BME280;2870;42.680;23.364;2023-04-10T12:19:13;95120.75;;;11.20;68.69
5691;BME280;2870;42.680;23.364;2023-04-10T12:21:41;95120.59;;;11.02;71.67
5691;BME280;2870;42.680;23.364;2023-04-10T12:24:08;95107.50;;;10.28;75.23
5691;BME280;2870;42.680;23.364;2023-04-10T12:26:37;95108.59;;;10.25;77.47
5691;BME280;2870;42.680;23.364;2023-04-10T12:29:03;95111.06;;;10.44;76.83
5691;BME280;2870;42.680;23.364;2023-04-10T12:31:33;95114.06;;;10.46;78.88
5691;BME280;2870;42.680;23.364;2023-04-10T12:34:01;95106.16;;;10.22;78.99
5691;BME280;2870;42.680;23.364;2023-04-10T12:36:31;95105.00;;;10.09;81.43
5691;BME280;2870;42.680;23.364;2023-04-10T12:39:00;95081.13;;;9.57;80.77
5691;BME280;2870;42.680;23.364;2023-04-10T12:41:29;95101.78;;;9.90;79.52
5691;BME280;2870;42.680;23.364;2023-04-10T12:44:08;95098.34;;;10.28;76.05
5691;BME280;2870;42.680;23.364;2023-04-10T12:46:36;95091.63;;;10.39;75.08
5691;BME280;2870;42.680;23.364;2023-04-10T12:49:11;95095.72;;;10.38;72.97
5691;BME280;2870;42.680;23.364;2023-04-10T12:51:42;95097.41;;;10.79;73.75
5691;BME280;2870;42.680;23.364;2023-04-10T12:54:09;95097.22;;;10.46;76.84
5691;BME280;2870;42.680;23.364;2023-04-10T12:56:43;95091.59;;;10.92;75.83
5691;BME280;2870;42.680;23.364;2023-04-10T12:59:12;95100.72;;;11.15;73.92
5691;BME280;2870;42.680;23.364;2023-04-10T13:01:39;95083.41;;;10.79;77.63
5691;BME280;2870;42.680;23.364;2023-04-10T13:04:06;95082.44;;;10.76;76.99
5691;BME280;2870;42.680;23.364;2023-04-10T13:06:41;95088.63;;;10.90;77.07
5691;BME280;2870;42.680;23.364;2023-04-10T13:09:08;95083.69;;;11.21;76.38
5691;BME280;2870;42.680;23.364;2023-04-10T13:11:35;95082.41;;;11.62;76.89
5691;BME280;2870;42.680;23.364;2023-04-10T13:14:03;95068.88;;;11.84;75.02
5691;BME280;2870;42.680;23.364;2023-04-10T13:16:32;95072.72;;;12.29;73.13
5691;BME280;2870;42.680;23.364;2023-04-10T13:18:59;95078.53;;;12.56;69.34
5691;BME280;2870;42.680;23.364;2023-04-10T13:21:26;95075.63;;;12.13;69.79
5691;BME280;2870;42.680;23.364;2023-04-10T13:23:53;95062.63;;;11.93;70.33
5691;BME280;2870;42.680;23.364;2023-04-10T13:26:20;95059.97;;;12.28;67.82
5691;BME280;2870;42.680;23.364;2023-04-10T13:28:47;95055.94;;;12.13;71.25
5691;BME280;2870;42.680;23.364;2023-04-10T13:31:14;95058.09;;;12.55;65.37
5691;BME280;2870;42.680;23.364;2023-04-10T13:33:44;95067.28;;;12.56;64.02
5691;BME280;2870;42.680;23.364;2023-04-10T13:36:12;95071.69;;;12.16;64.91
5691;BME280;2870;42.680;23.364;2023-04-10T13:38:39;95058.88;;;12.23;64.15
5691;BME280;2870;42.680;23.364;2023-04-10T13:41:06;95058.16;;;11.90;66.05
5691;BME280;2870;42.680;23.364;2023-04-10T13:43:33;95048.84;;;12.62;64.25
5691;BME280;2870;42.680;23.364;2023-04-10T13:46:00;95051.19;;;11.91;65.78
5691;BME280;2870;42.680;23.364;2023-04-10T13:48:26;95048.63;;;12.43;62.35
5691;BME280;2870;42.680;23.364;2023-04-10T13:50:54;95040.19;;;12.85;64.54
5691;BME280;2870;42.680;23.364;2023-04-10T13:53:22;95041.16;;;12.80;61.47
5691;BME280;2870;42.680;23.364;2023-04-10T13:55:48;95050.94;;;12.79;59.73
5691;BME280;2870;42.680;23.364;2023-04-10T13:58:15;95043.72;;;13.11;59.79
5691;BME280;2870;42.680;23.364;2023-04-10T14:00:42;95046.53;;;13.11;59.02
5691;BME280;2870;42.680;23.364;2023-04-10T14:03:09;95043.84;;;12.95;60.04
5691;BME280;2870;42.680;23.364;2023-04-10T14:05:36;95053.88;;;12.89;59.99
5691;BME280;2870;42.680;23.364;2023-04-10T14:08:05;95048.69;;;12.60;60.57
5691;BME280;2870;42.680;23.364;2023-04-10T14:10:35;95042.66;;;12.39;61.37
5691;BME280;2870;42.680;23.364;2023-04-10T14:13:03;95034.25;;;12.56;61.67
5691;BME280;2870;42.680;23.364;2023-04-10T14:15:31;95040.56;;;12.64;61.20
5691;BME280;2870;42.680;23.364;2023-04-10T14:17:57;95044.38;;;12.59;60.09
5691;BME280;2870;42.680;23.364;2023-04-10T14:20:24;95045.69;;;12.33;60.38
5691;BME280;2870;42.680;23.364;2023-04-10T14:22:51;95050.38;;;12.06;62.01
5691;BME280;2870;42.680;23.364;2023-04-10T14:25:19;95051.91;;;11.99;62.44
5691;BME280;2870;42.680;23.364;2023-04-10T14:27:46;95047.50;;;11.81;59.20
5691;BME280;2870;42.680;23.364;2023-04-10T14:30:13;95038.03;;;11.61;59.56
5691;BME280;2870;42.680;23.364;2023-04-10T14:32:40;95035.50;;;11.88;59.71
5691;BME280;2870;42.680;23.364;2023-04-10T14:35:08;95035.81;;;11.59;58.96
5691;BME280;2870;42.680;23.364;2023-04-10T14:37:37;95034.31;;;11.58;59.05
5691;BME280;2870;42.680;23.364;2023-04-10T14:40:05;95036.13;;;11.71;59.75
5691;BME280;2870;42.680;23.364;2023-04-10T14:42:33;95038.03;;;11.68;61.34
5691;BME280;2870;42.680;23.364;2023-04-10T14:45:00;95045.03;;;11.52;59.88
5691;BME280;2870;42.680;23.364;2023-04-10T14:47:27;95035.50;;;11.48;61.01
5691;BME280;2870;42.680;23.364;2023-04-10T14:49:54;95037.78;;;11.34;63.88
5691;BME280;2870;42.680;23.364;2023-04-10T14:52:21;95032.03;;;11.24;65.04
5691;BME280;2870;42.680;23.364;2023-04-10T14:54:47;95029.00;;;11.30;65.72
5691;BME280;2870;42.680;23.364;2023-04-10T14:57:14;95024.28;;;11.40;66.57
5691;BME280;2870;42.680;23.364;2023-04-10T14:59:43;95028.19;;;11.45;64.69
5691;BME280;2870;42.680;23.364;2023-04-10T15:02:09;95035.50;;;11.40;66.11
5691;BME280;2870;42.680;23.364;2023-04-10T15:04:36;95037.44;;;11.22;68.07
5691;BME280;2870;42.680;23.364;2023-04-10T15:07:03;95039.88;;;11.26;66.98
5691;BME280;2870;42.680;23.364;2023-04-10T15:09:31;95036.28;;;11.33;65.99
5691;BME280;2870;42.680;23.364;2023-04-10T15:11:58;95015.84;;;11.40;67.98
5691;BME280;2870;42.680;23.364;2023-04-10T15:14:26;95027.94;;;11.10;68.57
5691;BME280;2870;42.680;23.364;2023-04-10T15:16:54;95025.66;;;11.24;67.15
5691;BME280;2870;42.680;23.364;2023-04-10T15:19:21;95018.84;;;11.42;66.40
5691;BME280;2870;42.680;23.364;2023-04-10T15:21:47;95036.06;;;11.38;64.53
5691;BME280;2870;42.680;23.364;2023-04-10T15:24:14;95026.00;;;11.28;64.53
5691;BME280;2870;42.680;23.364;2023-04-10T15:26:43;95032.72;;;11.32;65.75
5691;BME280;2870;42.680;23.364;2023-04-10T15:29:10;95026.56;;;11.74;65.23
5691;BME280;2870;42.680;23.364;2023-04-10T15:31:37;95027.59;;;11.94;63.72
5691;BME280;2870;42.680;23.364;2023-04-10T15:34:06;95019.03;;;11.77;63.15
5691;BME280;2870;42.680;23.364;2023-04-10T15:36:33;95018.78;;;11.90;63.52
5691;BME280;2870;42.680;23.364;2023-04-10T15:39:00;95021.28;;;12.11;63.35
5691;BME280;2870;42.680;23.364;2023-04-10T15:41:28;95021.81;;;12.17;63.37
5691;BME280;2870;42.680;23.364;2023-04-10T15:43:57;95013.09;;;12.30;60.12
5691;BME280;2870;42.680;23.364;2023-04-10T15:46:24;95011.75;;;12.06;58.66
5691;BME280;2870;42.680;23.364;2023-04-10T15:48:51;95004.00;;;11.89;60.27
5691;BME280;2870;42.680;23.364;2023-04-10T15:51:19;95004.09;;;11.74;61.43
5691;BME280;2870;42.680;23.364;2023-04-10T15:53:46;95007.63;;;11.75;60.48
5691;BME280;2870;42.680;23.364;2023-04-10T15:56:13;95014.56;;;11.74;59.04
5691;BME280;2870;42.680;23.364;2023-04-10T15:58:40;95016.00;;;11.90;58.71
5691;BME280;2870;42.680;23.364;2023-04-10T16:01:07;95011.38;;;12.35;58.00
5691;BME280;2870;42.680;23.364;2023-04-10T16:03:34;95008.38;;;12.33;58.25
5691;BME280;2870;42.680;23.364;2023-04-10T16:06:00;95010.44;;;11.82;58.52
5691;BME280;2870;42.680;23.364;2023-04-10T16:08:29;95008.66;;;11.94;59.92
5691;BME280;2870;42.680;23.364;2023-04-10T16:10:55;95005.16;;;11.79;60.81
5691;BME280;2870;42.680;23.364;2023-04-10T16:13:23;95014.50;;;11.89;59.15
5691;BME280;2870;42.680;23.364;2023-04-10T16:15:50;95009.41;;;11.95;59.61
5691;BME280;2870;42.680;23.364;2023-04-10T16:18:17;95013.75;;;12.13;60.95
5691;BME280;2870;42.680;23.364;2023-04-10T16:20:44;94999.31;;;12.17;60.41
5691;BME280;2870;42.680;23.364;2023-04-10T16:23:10;95010.19;;;12.20;59.91
5691;BME280;2870;42.680;23.364;2023-04-10T16:25:41;95016.06;;;12.07;58.80
5691;BME280;2870;42.680;23.364;2023-04-10T16:28:08;95021.16;;;12.01;59.98
5691;BME280;2870;42.680;23.364;2023-04-10T16:30:35;95040.97;;;11.86;60.13
5691;BME280;2870;42.680;23.364;2023-04-10T16:33:04;95041.69;;;10.68;68.26
5691;BME280;2870;42.680;23.364;2023-04-10T16:35:31;95048.53;;;9.98;76.53
5691;BME280;2870;42.680;23.364;2023-04-10T16:37:58;95039.44;;;9.46;83.71
5691;BME280;2870;42.680;23.364;2023-04-10T16:40:24;95051.13;;;8.57;88.64
5691;BME280;2870;42.680;23.364;2023-04-10T16:42:58;95040.97;;;8.25;93.75
5691;BME280;2870;42.680;23.364;2023-04-10T16:45:26;95032.41;;;8.23;95.01
5691;BME280;2870;42.680;23.364;2023-04-10T16:47:52;95039.28;;;8.01;96.66
5691;BME280;2870;42.680;23.364;2023-04-10T16:50:19;95035.41;;;7.83;99.50
5691;BME280;2870;42.680;23.364;2023-04-10T16:52:46;95038.44;;;7.93;99.21
5691;BME280;2870;42.680;23.364;2023-04-10T16:55:13;95027.22;;;7.85;100.00
5691;BME280;2870;42.680;23.364;2023-04-10T16:57:41;95034.09;;;8.05;99.52
5691;BME280;2870;42.680;23.364;2023-04-10T17:00:10;95033.63;;;8.14;98.60
5691;BME280;2870;42.680;23.364;2023-04-10T17:02:37;95036.75;;;8.11;98.37
5691;BME280;2870;42.680;23.364;2023-04-10T17:05:04;95031.44;;;8.20;98.87
5691;BME280;2870;42.680;23.364;2023-04-10T17:07:31;95019.84;;;8.37;97.67
5691;BME280;2870;42.680;23.364;2023-04-10T17:09:58;95028.66;;;8.41;97.11
5691;BME280;2870;42.680;23.364;2023-04-10T17:12:25;95034.59;;;8.17;95.53
5691;BME280;2870;42.680;23.364;2023-04-10T17:14:51;95041.38;;;8.29;96.00
5691;BME280;2870;42.680;23.364;2023-04-10T17:17:20;95038.84;;;8.39;94.79
5691;BME280;2870;42.680;23.364;2023-04-10T17:19:46;95058.44;;;8.67;94.92
5691;BME280;2870;42.680;23.364;2023-04-10T17:22:13;95054.84;;;8.88;94.23
5691;BME280;2870;42.680;23.364;2023-04-10T17:24:42;95050.66;;;8.73;94.91
5691;BME280;2870;42.680;23.364;2023-04-10T17:27:09;95059.38;;;8.62;97.18
5691;BME280;2870;42.680;23.364;2023-04-10T17:29:36;95055.13;;;8.27;99.19
5691;BME280;2870;42.680;23.364;2023-04-10T17:32:03;95038.44;;;8.14;100.00